Weather History for KGSB - December, 2013

Change the Weather History Date:

Monday, December 23, 2013

  Actual Average Record
Temperature  
Mean Temperature 65 °F -  
Max Temperature 78 °F 50 °F 78 °F (2013)
Min Temperature 51 °F 32 °F 19 °F (2000)
Growing Degree Days 15 (Base 50)    
Moisture  
Dew Point 67 °F    
Average Humidity 95    
Maximum Humidity 100    
Minimum Humidity 74    
Precipitation  
Precipitation 0.85 in - - ()
Sea Level Pressure  
Sea Level Pressure 30.05 in    
Wind  
Wind Speed 11 mph (WSW)    
Max Wind Speed 21 mph    
Max Gust Speed 29 mph    
Visibility 9 miles    
Events Rain    
Averages and records for this station are not official NWS values.
T = Trace of Precipitation, MM = Missing Value Source: NWS Daily Summary

Daily Weather History Graph

Daily Weather History Graph

Search for Another Location

Airport or City:

Trip Planner

Search our weather history database for the weather conditions in past years. The results will help you decide how hot, cold, wet, or windy it might be!

Date:

Astronomy

Dec. 23, 2013 Rise Set
Actual Time 7:17 AM EST 5:04 PM EST
Civil Twilight 6:49 AM EST 5:32 PM EST
Nautical Twilight 6:17 AM EST 6:04 PM EST
Astronomical Twilight 5:46 AM EST 6:35 PM EST
Moon 10:59 PM EST (12/23) 10:53 AM EST (12/23)
Length of Visible Light 10h 43m
Length of Day
9h 46m
Waning Gibbous, 68% of the Moon is Illuminated
Dec 23
Waning Gibbous
Dec 25
Last Quarter
Jan 1
New
Jan 7
First Quarter
Jan 15
Full

Hourly Weather History & Observations

Time (EST) Temp. Dew Point Humidity Pressure Visibility Wind Dir Wind Speed Gust Speed Precip Events Conditions
12:46 AM 68.0 °F 68.0 °F 100% 30.08 in 10.0 mi South 12.7 mph 17.3 mph N/A   Mostly Cloudy
12:58 AM 69.1 °F 68.5 °F 98% 30.09 in 10.0 mi South 8.1 mph - N/A   Mostly Cloudy
1:04 AM 69.8 °F 68.0 °F 94% 30.08 in 10.0 mi South 11.5 mph - N/A   Mostly Cloudy
1:58 AM 71.2 °F 70.7 °F 98% 30.09 in 10.0 mi South 13.8 mph 21.9 mph N/A   Overcast
2:40 AM 71.6 °F 69.8 °F 94% 30.07 in 10.0 mi South 12.7 mph - N/A   Mostly Cloudy
2:58 AM 71.8 °F 70.9 °F 97% 30.08 in 10.0 mi SSW 11.5 mph 18.4 mph N/A   Mostly Cloudy
3:01 AM 71.6 °F 71.6 °F 100% 30.07 in 10.0 mi SSW 13.8 mph 18.4 mph N/A   Mostly Cloudy
3:58 AM 72.1 °F 70.7 °F 95% 30.06 in 10.0 mi SSW 11.5 mph 23.0 mph N/A   Overcast
4:16 AM 71.6 °F 69.8 °F 94% 30.05 in 10.0 mi SSW 11.5 mph - N/A   Overcast
4:37 AM 71.6 °F 71.6 °F 100% 30.05 in 10.0 mi South 13.8 mph - N/A   Mostly Cloudy
4:40 AM 71.6 °F 69.8 °F 94% 30.05 in 10.0 mi South 11.5 mph - N/A   Mostly Cloudy
4:52 AM 71.6 °F 71.6 °F 100% 30.05 in 10.0 mi South 10.4 mph - N/A   Mostly Cloudy
4:58 AM 72.1 °F 70.9 °F 96% 30.06 in 10.0 mi SSW 11.5 mph - N/A   Overcast
5:02 AM 71.6 °F 71.6 °F 100% 30.05 in 10.0 mi SSW 9.2 mph - N/A Rain Light Rain
5:12 AM 71.6 °F 71.6 °F 100% 30.05 in 10.0 mi SSW 9.2 mph - N/A   Overcast
5:21 AM 71.6 °F 71.6 °F 100% 30.05 in 10.0 mi SSW 8.1 mph - N/A   Overcast
5:29 AM 71.6 °F 71.6 °F 100% 30.05 in 10.0 mi South 9.2 mph - N/A Rain Light Rain
5:38 AM 71.6 °F 71.6 °F 100% 30.04 in 10.0 mi South 9.2 mph 18.4 mph N/A   Mostly Cloudy
5:41 AM 71.6 °F 71.6 °F 100% 30.04 in 10.0 mi South 11.5 mph 18.4 mph N/A   Mostly Cloudy
5:44 AM 71.6 °F 71.6 °F 100% 30.04 in 10.0 mi SSW 8.1 mph - N/A   Mostly Cloudy
5:47 AM 71.6 °F 71.6 °F 100% 30.04 in 10.0 mi South 9.2 mph - N/A   Scattered Clouds
5:56 AM 71.6 °F 71.6 °F 100% 30.04 in 10.0 mi South 6.9 mph - N/A   Mostly Cloudy
5:58 AM 71.6 °F 71.1 °F 98% 30.05 in 10.0 mi South 6.9 mph - 0.00 in   Mostly Cloudy
6:13 AM 71.6 °F 71.6 °F 100% 30.04 in 10.0 mi South 9.2 mph - N/A   Scattered Clouds
6:16 AM 71.6 °F 71.6 °F 100% 30.04 in 10.0 mi South 9.2 mph - N/A   Mostly Cloudy
6:28 AM 71.6 °F 71.6 °F 100% 30.05 in 10.0 mi South 10.4 mph - N/A   Scattered Clouds
6:34 AM 71.6 °F 71.6 °F 100% 30.04 in 10.0 mi South 9.2 mph - N/A   Mostly Cloudy
6:37 AM 71.6 °F 71.6 °F 100% 30.04 in 10.0 mi South 9.2 mph - N/A   Scattered Clouds
6:40 AM 71.6 °F 71.6 °F 100% 30.04 in 10.0 mi South 11.5 mph - N/A   Mostly Cloudy
6:43 AM 71.6 °F 71.6 °F 100% 30.04 in 10.0 mi South 12.7 mph 17.3 mph N/A   Mostly Cloudy
6:58 AM 72.3 °F 71.1 °F 96% 30.06 in 10.0 mi South 12.7 mph 19.6 mph N/A   Mostly Cloudy
7:40 AM 73.4 °F 71.6 °F 94% 30.06 in 10.0 mi SSW 15.0 mph 21.9 mph N/A   Scattered Clouds
7:43 AM 71.6 °F 71.6 °F 100% 30.06 in 10.0 mi SSW 16.1 mph 21.9 mph N/A   Mostly Cloudy
7:46 AM 71.6 °F 71.6 °F 100% 30.06 in 10.0 mi SSW 13.8 mph 21.9 mph N/A   Mostly Cloudy
7:51 AM 71.6 °F 71.6 °F 100% 30.07 in 10.0 mi SSW 12.7 mph 20.7 mph N/A Rain Light Rain
7:54 AM 71.6 °F 71.6 °F 100% 30.06 in 10.0 mi SSW 11.5 mph 19.6 mph N/A Rain Light Rain
7:57 AM 71.6 °F 71.6 °F 100% 30.06 in 10.0 mi SSW 11.5 mph 19.6 mph N/A Rain Light Rain
7:58 AM 72.3 °F 71.2 °F 96% 30.07 in 10.0 mi SSW 11.5 mph 19.6 mph 0.00 in Rain Light Rain
8:01 AM 71.6 °F 71.6 °F 100% 30.07 in 10.0 mi SSW 10.4 mph 19.6 mph N/A Rain Light Rain
8:04 AM 71.6 °F 71.6 °F 100% 30.06 in 10.0 mi South 12.7 mph 18.4 mph N/A   Light Drizzle
8:06 AM 71.6 °F 71.6 °F 100% 30.07 in 10.0 mi SSW 11.5 mph 18.4 mph N/A   Mostly Cloudy
8:18 AM 71.6 °F 71.6 °F 100% 30.07 in 10.0 mi SSW 12.7 mph 20.7 mph N/A   Scattered Clouds
8:54 AM 73.4 °F 71.6 °F 94% 30.07 in 10.0 mi SSW 15.0 mph - N/A   Mostly Cloudy
8:58 AM 72.7 °F 70.9 °F 94% 30.08 in 10.0 mi SSW 12.7 mph - 0.00 in   Mostly Cloudy
9:01 AM 73.4 °F 71.6 °F 94% 30.08 in 10.0 mi SSW 12.7 mph 20.7 mph N/A   Mostly Cloudy
9:13 AM 73.4 °F 71.6 °F 94% 30.07 in 10.0 mi South 12.7 mph 20.7 mph N/A   Mostly Cloudy
9:19 AM 73.4 °F 71.6 °F 94% 30.07 in 10.0 mi South 15.0 mph 21.9 mph N/A   Mostly Cloudy
9:25 AM 73.4 °F 69.8 °F 88% 30.07 in 10.0 mi SSW 13.8 mph 23.0 mph N/A   Mostly Cloudy
9:31 AM 73.4 °F 69.8 °F 88% 30.07 in 10.0 mi SSW 17.3 mph 25.3 mph N/A   Scattered Clouds
9:40 AM 75.2 °F 69.8 °F 83% 30.07 in 10.0 mi SSW 12.7 mph 25.3 mph N/A   Mostly Cloudy
9:43 AM 73.4 °F 69.8 °F 88% 30.07 in 10.0 mi SSW 12.7 mph 20.7 mph N/A   Scattered Clouds
9:58 AM 74.5 °F 70.3 °F 87% 30.08 in 10.0 mi SSW 13.8 mph 20.7 mph N/A   Partly Cloudy
10:40 AM 75.2 °F 69.8 °F 83% 30.07 in 10.0 mi SSW 12.7 mph - N/A   Mostly Cloudy
10:49 AM 75.2 °F 69.8 °F 83% 30.07 in 10.0 mi SSW 16.1 mph 19.6 mph N/A   Mostly Cloudy
10:58 AM 75.6 °F 69.8 °F 82% 30.07 in 10.0 mi SSW 12.7 mph 19.6 mph N/A   Mostly Cloudy
11:01 AM 75.2 °F 69.8 °F 83% 30.06 in 10.0 mi SSW 13.8 mph 19.6 mph N/A   Mostly Cloudy
11:13 AM 77.0 °F 69.8 °F 78% 30.06 in 10.0 mi SSW 10.4 mph 20.7 mph N/A   Mostly Cloudy
11:16 AM 75.2 °F 69.8 °F 83% 30.06 in 10.0 mi SSW 15.0 mph 20.7 mph N/A   Mostly Cloudy
11:19 AM 75.2 °F 69.8 °F 83% 30.06 in 10.0 mi SSW 12.7 mph 21.9 mph N/A   Mostly Cloudy
11:22 AM 75.2 °F 69.8 °F 83% 30.06 in 10.0 mi SSW 12.7 mph 21.9 mph N/A   Mostly Cloudy
11:37 AM 77.0 °F 69.8 °F 78% 30.05 in 10.0 mi SSW 15.0 mph 21.9 mph N/A   Mostly Cloudy
11:58 AM 76.8 °F 69.1 °F 77% 30.05 in 10.0 mi SSW 16.1 mph 23.0 mph N/A   Mostly Cloudy
12:01 PM 77.0 °F 69.8 °F 78% 30.04 in 10.0 mi SSW 13.8 mph 23.0 mph N/A   Scattered Clouds
12:30 PM 78.8 °F 69.8 °F 74% 30.02 in 10.0 mi WSW 16.1 mph 28.8 mph N/A   Mostly Cloudy
12:38 PM 75.2 °F 71.6 °F 89% 30.02 in 10.0 mi West 11.5 mph 28.8 mph N/A Rain Light Rain
12:48 PM 71.6 °F 68.0 °F 88% 30.02 in 10.0 mi West 11.5 mph - N/A   Overcast
12:50 PM 71.6 °F 68.0 °F 88% 30.02 in 10.0 mi WNW 10.4 mph - N/A Rain Light Rain
12:56 PM 69.8 °F 68.0 °F 94% 30.03 in 10.0 mi West 15.0 mph 23.0 mph N/A Rain Light Rain
12:58 PM 70.7 °F 68.7 °F 93% 30.03 in 10.0 mi West 10.4 mph 23.0 mph 0.00 in Rain Light Rain
1:04 PM 69.8 °F 68.0 °F 94% 30.03 in 9.0 mi West 16.1 mph 23.0 mph N/A Rain Light Rain
1:07 PM 69.8 °F 68.0 °F 94% 30.01 in 2.5 mi West 16.1 mph - N/A Rain Light Rain
1:10 PM 68.0 °F 68.0 °F 100% 30.02 in 1.8 mi West 12.7 mph - N/A Rain Heavy Rain
1:16 PM 68.0 °F 68.0 °F 100% 30.02 in 3.0 mi WSW 9.2 mph - N/A Rain Light Rain
1:22 PM 69.8 °F 68.0 °F 94% 30.01 in 10.0 mi WSW 9.2 mph - N/A   Scattered Clouds
1:26 PM 69.8 °F 68.0 °F 94% 30.01 in 10.0 mi WSW 8.1 mph - N/A Rain Light Rain
1:35 PM 69.8 °F 68.0 °F 94% 30.01 in 10.0 mi WSW 8.1 mph - N/A   Mostly Cloudy
1:58 PM 70.7 °F 69.3 °F 95% 30.01 in 10.0 mi WSW 4.6 mph - 0.13 in   Partly Cloudy
2:26 PM 69.8 °F 69.8 °F 100% 30.00 in 10.0 mi SSW 4.6 mph - N/A Rain Light Rain
2:41 PM 69.8 °F 68.0 °F 94% 30.00 in 3.0 mi SW 4.6 mph - N/A Rain Light Rain
2:44 PM 69.8 °F 68.0 °F 94% 30.00 in 2.5 mi West 5.8 mph - N/A Rain Rain
2:47 PM 69.8 °F 68.0 °F 94% 30.00 in 1.8 mi West 8.1 mph - N/A Rain Rain
2:53 PM 68.0 °F 68.0 °F 100% 30.00 in 2.0 mi West 11.5 mph - N/A Rain Rain
2:56 PM 68.0 °F 68.0 °F 100% 30.01 in 2.5 mi West 10.4 mph - N/A Rain Rain
2:58 PM 68.5 °F 68.0 °F 98% 30.02 in 2.5 mi WSW 11.5 mph - 0.24 in Rain Heavy Rain
3:01 PM 68.0 °F 68.0 °F 100% 30.01 in 1.8 mi West 13.8 mph - N/A Rain Heavy Rain
3:04 PM 68.0 °F 68.0 °F 100% 30.00 in 1.2 mi West 9.2 mph - N/A Rain Heavy Rain
3:10 PM 68.0 °F 68.0 °F 100% 29.99 in 1.8 mi WNW 6.9 mph - N/A Rain Rain
3:13 PM 68.0 °F 68.0 °F 100% 29.99 in 4.0 mi WNW 4.6 mph - N/A Rain Light Rain
3:19 PM 68.0 °F 68.0 °F 100% 30.00 in 9.0 mi West 3.5 mph - N/A Rain Light Rain
3:22 PM 68.0 °F 68.0 °F 100% 29.99 in 10.0 mi West 2.3 mph - N/A Rain Light Rain
3:23 PM 68.0 °F 68.0 °F 100% 29.99 in 10.0 mi West 2.3 mph - N/A   Scattered Clouds
3:58 PM 68.5 °F 68.0 °F 98% 30.00 in 10.0 mi Variable 1.2 mph - 0.19 in   Partly Cloudy
4:58 PM 67.8 °F 67.1 °F 98% 30.01 in 10.0 mi Calm Calm - N/A   Mostly Cloudy
5:06 PM 68.0 °F 68.0 °F 100% 30.00 in 10.0 mi West 4.6 mph - N/A Rain Light Rain
5:39 PM 68.0 °F 66.2 °F 94% 30.00 in 10.0 mi West 6.9 mph - N/A Rain Light Rain
5:45 PM 68.0 °F 66.2 °F 94% 30.01 in 10.0 mi West 9.2 mph - N/A   Mostly Cloudy
5:49 PM 68.0 °F 66.2 °F 94% 30.00 in 10.0 mi West 10.4 mph - N/A Rain Light Rain
5:58 PM 67.6 °F 67.1 °F 98% 30.02 in 10.0 mi WNW 8.1 mph - 0.02 in Rain Light Rain
6:07 PM 66.2 °F 66.2 °F 100% 30.01 in 10.0 mi NNW 20.7 mph 25.3 mph N/A Rain Light Rain
6:25 PM 59.0 °F 59.0 °F 100% 30.04 in 10.0 mi NNW 13.8 mph 21.9 mph N/A Rain Light Rain
6:37 PM 59.0 °F 59.0 °F 100% 30.05 in 10.0 mi NW 11.5 mph - N/A Rain Light Rain
6:46 PM 59.0 °F 59.0 °F 100% 30.05 in 10.0 mi NNW 10.4 mph 19.6 mph N/A Rain Light Rain
6:55 PM 59.0 °F 57.2 °F 94% 30.07 in 9.0 mi NW 10.4 mph - N/A Rain Light Rain
6:58 PM 58.6 °F 58.1 °F 98% 30.08 in 8.0 mi NNW 12.7 mph - 0.07 in Rain Rain
7:07 PM 59.0 °F 57.2 °F 94% 30.07 in 10.0 mi NNW 11.5 mph - N/A Rain Rain
7:25 PM 59.0 °F 57.2 °F 94% 30.08 in 10.0 mi NNW 6.9 mph - N/A Rain Light Rain
7:31 PM 59.0 °F 57.2 °F 94% 30.07 in 10.0 mi NNW 6.9 mph - N/A Rain Light Rain
7:34 PM 59.0 °F 57.2 °F 94% 30.08 in 10.0 mi NNW 8.1 mph - N/A Rain Light Rain
7:37 PM 59.0 °F 57.2 °F 94% 30.08 in 10.0 mi North 10.4 mph - N/A Rain Light Rain
7:58 PM 57.7 °F 57.2 °F 98% 30.09 in 10.0 mi North 8.1 mph - 0.06 in Rain Light Rain
8:04 PM 57.2 °F 57.2 °F 100% 30.08 in 10.0 mi NNW 6.9 mph - N/A Rain Light Rain
8:10 PM 57.2 °F 57.2 °F 100% 30.08 in 10.0 mi NNW 9.2 mph 17.3 mph N/A Rain Light Rain
8:22 PM 57.2 °F 55.4 °F 94% 30.08 in 10.0 mi NNW 12.7 mph - N/A Rain Light Rain
8:28 PM 57.2 °F 55.4 °F 94% 30.08 in 10.0 mi NNW 10.4 mph - N/A Rain Light Rain
8:46 PM 55.4 °F 55.4 °F 100% 30.08 in 10.0 mi NW 5.8 mph - N/A Rain Light Rain
8:58 PM 55.4 °F 54.9 °F 98% 30.10 in 10.0 mi NW 9.2 mph - 0.02 in Rain Light Rain
9:04 PM 55.4 °F 53.6 °F 94% 30.09 in 10.0 mi NNW 9.2 mph - N/A Rain Light Rain
9:05 PM 55.4 °F 53.6 °F 94% 30.08 in 10.0 mi NW 8.1 mph - N/A   Overcast
9:08 PM 55.4 °F 53.6 °F 94% 30.08 in 10.0 mi NNW 6.9 mph - N/A Rain Light Rain
9:11 PM 55.4 °F 53.6 °F 94% 30.08 in 10.0 mi NNW 5.8 mph - N/A Rain Light Rain
9:17 PM 55.4 °F 53.6 °F 94% 30.08 in 10.0 mi NNW 5.8 mph - N/A Rain Light Rain
9:56 PM 53.6 °F 53.6 °F 100% 30.09 in 10.0 mi NW 10.4 mph - N/A Rain Light Rain
9:58 PM 53.6 °F 53.1 °F 98% 30.10 in 10.0 mi NNW 10.4 mph - 0.01 in Rain Light Rain
10:25 PM 53.6 °F 51.8 °F 94% 30.09 in 10.0 mi NNW 6.9 mph - N/A Rain Light Rain
10:37 PM 53.6 °F 51.8 °F 94% 30.09 in 10.0 mi NNW 6.9 mph - N/A Rain Light Rain
10:58 PM 52.5 °F 52.0 °F 98% 30.11 in 10.0 mi NW 9.2 mph - 0.02 in Rain Light Rain
11:58 PM 51.4 °F 50.9 °F 98% 30.10 in 10.0 mi North 6.9 mph - 0.09 in Rain Light Rain